Flight Track Log - Related Links

Times and Time Zones

All times are in EDT time to prevent confusion due to time zone crossing. See the JIA2257 flight status page for this flight to view local times or setup timezone preferences in your user account.

Time Position Orientation Groundspeed Altitude Reporting Facility
EDT Latitude Longitude Course Direction KTS MPH feet Rate Location/Type
Tue 10:47:45 PM 35.1956 -80.9533 239° Southwest 164 189 1,500  Level Atlanta Center
Tue 10:48:33 PM 35.1600 -80.9519 178° South 167 192 2,600 1,565 Climbing Atlanta Center
Tue 10:49:17 PM 35.1122 -80.9667 194° South 253 291 3,900 2,149 Climbing Atlanta Center
Tue 10:49:40 PM 35.0942 -80.9900 227° Southwest 276 318 5,000 2,700 Climbing Atlanta Center
Tue 10:50:00 PM 35.2539 -81.1398 282° West  Level FlightAware Approximate
Tue 10:50:17 PM 35.0914 -81.0461 267° West 273 314 6,600  Level Atlanta Center
Tue 10:50:41 PM 35.0922 -81.0814 272° West 279 321 8,000 3,200 Climbing Atlanta Center
Tue 10:51:00 PM 35.2539 -81.2465 242° Southwest  Level FlightAware Approximate
Tue 10:51:17 PM 35.0997 -81.1344 280° West 261 300 9,800  Level Atlanta Center
Tue 10:52:00 PM 35.2108 -81.3452 239° Southwest  Level FlightAware Approximate
Tue 10:52:17 PM 35.1264 -81.2097 293° West 275 316 11,400  Level Atlanta Center
Tue 10:53:00 PM 35.1630 -81.4407 239° Southwest  Level FlightAware Approximate
Tue 10:53:17 PM 35.1353 -81.3161 276° West 299 344 13,400  Level Atlanta Center
Tue 10:54:17 PM 35.1439 -81.4278 275° West 321 369 15,500 1,850 Climbing Atlanta Center
Tue 10:55:17 PM 35.1442 -81.5444 270° West 343 395 17,100 1,650 Climbing Atlanta Center
Tue 10:56:17 PM 35.1342 -81.6769 265° West 360 414 18,800 1,800 Climbing Atlanta Center
Tue 10:57:17 PM 35.1261 -81.8014 266° West 368 423 20,700 1,550 Climbing Atlanta Center
Tue 10:58:17 PM 35.1158 -81.9314 265° West 374 430 21,900 650 Climbing Atlanta Center
Tue 10:59:17 PM 35.1056 -82.0636 265° West 387 445 22,000 50 Climbing Atlanta Center
Tue 11:00:17 PM 35.0972 -82.1958 266° West 396 456 22,000  Level Atlanta Center
Tue 11:01:17 PM 35.0864 -82.3053 263° West 381 438 22,000  Level Atlanta Center
Tue 11:02:17 PM 35.0756 -82.4372 264° West 381 438 22,000  Level Atlanta Center
Tue 11:03:17 PM 35.0647 -82.5594 264° West 381 438 22,000  Level Atlanta Center
Tue 11:04:17 PM 35.0556 -82.6839 265° West 381 438 22,000  Level Atlanta Center
Tue 11:05:17 PM 35.0444 -82.8008 263° West 376 433 22,000  Level Atlanta Center
Tue 11:06:17 PM 35.0331 -82.9278 264° West 370 426 22,000  Level Atlanta Center
Tue 11:07:17 PM 35.0236 -83.0497 265° West 370 426 22,000  Level Atlanta Center
Tue 11:08:17 PM 35.0119 -83.1739 263° West 370 426 22,000  Level Atlanta Center
Tue 11:09:17 PM 34.9983 -83.3033 263° West 375 432 22,000  Level Atlanta Center
Tue 11:10:17 PM 34.9864 -83.4278 263° West 375 432 22,000  Level Atlanta Center
Tue 11:11:17 PM 34.9767 -83.5544 265° West 375 432 22,000  Level Atlanta Center
Tue 11:12:17 PM 34.9644 -83.6764 263° West 375 432 22,000  Level Atlanta Center
Tue 11:13:17 PM 34.9544 -83.8031 265° West 375 432 22,000  Level Atlanta Center
Tue 11:14:17 PM 34.9442 -83.9272 264° West 370 426 22,000  Level Atlanta Center
Tue 11:15:17 PM 34.9464 -84.0514 271° West 365 420 22,000  Level Atlanta Center
Tue 11:16:17 PM 34.9483 -84.1781 271° West 365 420 22,000  Level Atlanta Center
Tue 11:17:17 PM 34.9503 -84.3022 271° West 365 420 22,000  Level Atlanta Center
Tue 11:18:17 PM 34.9519 -84.4264 271° West 365 420 22,000  Level Atlanta Center
Tue 11:19:17 PM 34.9556 -84.5633 272° West 365 420 22,000  Level Atlanta Center
Tue 11:20:17 PM 34.9550 -84.6850 270° West 365 420 22,000  Level Atlanta Center
Tue 11:21:17 PM 34.9583 -84.8117 272° West 365 420 22,000  Level Atlanta Center
Tue 11:22:17 PM 34.9597 -84.9308 271° West 365 420 22,000 -649 Level Atlanta Center
Tue 11:24:22 PM 34.9592 -85.1656 270° West 358 412 20,000 -1,200 Descending Memphis Center
Tue 11:25:22 PM 34.9472 -85.2803 263° West 351 404 18,300 -1,650 Descending Memphis Center
Tue 11:26:22 PM 34.9350 -85.3925 262° West 351 404 16,700 -1,650 Descending Memphis Center
Tue 11:27:22 PM 34.9228 -85.5019 262° West 339 390 15,000 -1,700 Descending Memphis Center
Tue 11:28:22 PM 34.9122 -85.6114 263° West 334 384 13,300 -1,750 Descending Memphis Center
Tue 11:29:22 PM 34.8997 -85.7211 262° West 334 384 11,500 -1,150 Descending Memphis Center
Tue 11:30:22 PM 34.8892 -85.8281 263° West 329 379 11,000 -250 Descending Memphis Center
Tue 11:31:22 PM 34.8781 -85.9222 262° West 316 364 11,000 -500 Level Memphis Center
Tue 11:32:22 PM 34.8669 -86.0214 262° West 302 348 10,000 -500 Descending Memphis Center
Tue 11:33:22 PM 34.8556 -86.1208 262° West 302 348 10,000 -300 Level Memphis Center
Tue 11:34:22 PM 34.8428 -86.2303 262° West 292 336 9,400 -1,200 Descending Memphis Center
Tue 11:35:22 PM 34.8308 -86.3117 260° West 287 330 7,600 -1,800 Descending Memphis Center
Tue 11:36:22 PM 34.8211 -86.3983 262° West 270 311 5,800 -1,600 Descending Memphis Center
Tue 11:37:22 PM 34.8092 -86.4822 260° West 258 297 4,400 -900 Descending Memphis Center
Tue 11:38:22 PM 34.7989 -86.5586 261° West 253 291 4,000 -600 Descending Memphis Center
Tue 11:39:22 PM 34.7886 -86.6325 260° West 234 269 3,200 -800 Descending Memphis Center
Tue 11:40:22 PM 34.7781 -86.7011 259° West 224 258 2,400 -500 Descending Memphis Center
Tue 11:41:22 PM 34.7506 -86.7553 238° Southwest 203 234 2,200 -200 Descending Memphis Center

Login

Don't have an account? Register now (free) for customized features, flight alerts, and more!